Terminal Aerodrome Forecast
Issued by NWS Upton, NY

Home | Current Version | Previous Version | Text Only | Print | Product List | Glossary On
Versions: 1 2 3 4 5 6 7 8 9 10 11 12 13 14 15 16 17 18 19 20 21 22 23 24 25 26 27
000
FTUS41 KOKX 212000 AAA
TAFISP
TAF AMD
KISP 212039Z 2121/2218 13010KT P6SM BKN040 BKN080
     FM220000 12004KT P6SM SCT015 BKN040
      TEMPO 2203/2206 5SM SHRA BR BKN015
     FM220600 10003KT 5SM BR VCSH BKN015 OVC030
     FM221000 11006KT 5SM BR VCSH BKN020 OVC040
     FM221600 12008KT P6SM SCT025 BKN050=

USA.gov is the U.S. government's official web portal to all federal, state and local government web resources and services.